HBBA/BJM METAR and TAF weather

Enter ICAO airport designator
Station Type Date Time Source
HBBA METAR 2020/10/19 18:00 UTC NOAA

HBBA 191800Z 17003KT 9999 TS SCT025 FEW030CB BKN100 26/21 Q1012


Station Type Date Time Source
HBBA Decoded METAR 2020/10/19 18:00 UTC NOAA

Bujumbura, Burundi (HBBA) 03-19S 029-19E 783M
Oct 19, 2020 - 02:00 PM EDT / 2020.10.19 1800 UTC
Wind: from the S (170 degrees) at 3 MPH (3 KT):0
Visibility: greater than 7 mile(s):0
Sky conditions: mostly cloudy
Weather: thunder; Cumulonimbus clouds observed
Temperature: 78 F (26 C)
Dew Point: 69 F (21 C)
Relative Humidity: 73%
Pressure (altimeter): 29.88 in. Hg (1012 hPa)
ob: HBBA 191800Z 17003KT 9999 TS SCT025 FEW030CB BKN100 26/21 Q1012
cycle: 18

Station Type Date Time Source
HBBA TAF 2020/10/22 00:24 UTC NOAA

TAF HBBA 212300Z 2200/2306 36005KT 9999 FEW030 BKN100
BECMG 2207/2209 18012G25KT 9999 FEW025CB BKN100 PROB30
TEMPO 2212/2218 09015G25KT 7000 TSRA OR SHRA FEW025CB BKN090
BECMG 2222/2300 36003KT 9999 FEW030 BKN100

Example: see airport list